createdAt,value
2022-08-26T00:08:27.312Z,23.79
2022-08-26T00:11:30.187Z,23.66
2022-08-26T00:14:34.861Z,23.63
2022-08-26T00:17:41.358Z,23.59
2022-08-26T00:20:48.185Z,23.70
2022-08-26T00:23:49.644Z,23.52
2022-08-26T00:26:52.362Z,23.65
2022-08-26T00:29:58.043Z,23.57
2022-08-26T00:33:40.142Z,23.51
2022-08-26T00:37:34.313Z,23.47
2022-08-26T00:41:15.218Z,23.42
2022-08-26T00:48:01.340Z,23.45
2022-08-26T00:51:29.783Z,23.36
2022-08-26T00:55:03.974Z,23.28
2022-08-26T00:58:46.487Z,23.31
2022-08-26T01:02:25.339Z,23.30
2022-08-26T01:05:47.371Z,23.10
2022-08-26T01:17:49.623Z,23.05
2022-08-26T01:21:36.778Z,23.09
2022-08-26T01:25:16.507Z,23.07
2022-08-26T01:41:55.311Z,22.74
2022-08-26T01:45:22.998Z,22.79
2022-08-26T01:48:45.767Z,22.79
2022-08-26T01:52:11.935Z,22.73
2022-08-26T01:55:36.950Z,22.71
2022-08-26T01:58:42.766Z,22.72
2022-08-26T02:01:44.622Z,22.65
2022-08-26T02:04:52.524Z,22.54
2022-08-26T02:07:54.402Z,22.58
2022-08-26T02:10:55.866Z,22.57
2022-08-26T02:14:03.725Z,22.52
2022-08-26T02:17:05.501Z,22.49
2022-08-26T02:20:13.348Z,22.24
2022-08-26T02:23:53.572Z,22.07
2022-08-26T02:27:21.325Z,22.05
2022-08-26T02:34:31.368Z,22.18
2022-08-26T02:37:53.322Z,22.22
2022-08-26T02:41:15.483Z,22.14
2022-08-26T02:44:55.882Z,22.23
2022-08-26T02:47:57.385Z,22.19
2022-08-26T02:51:01.210Z,22.10
2022-08-26T02:54:02.941Z,22.06
2022-08-26T03:07:44.483Z,21.88
2022-08-26T03:11:06.484Z,21.59
2022-08-26T03:14:28.150Z,21.55
2022-08-26T03:17:51.988Z,21.62
2022-08-26T03:21:16.800Z,21.50
2022-08-26T03:24:39.847Z,21.51
2022-08-26T03:28:02.110Z,21.53
2022-08-26T03:31:24.765Z,21.54
2022-08-26T03:39:28.471Z,21.55
2022-08-26T03:46:35.928Z,21.69
2022-08-26T03:50:07.371Z,21.72
2022-08-26T03:57:29.672Z,21.72
2022-08-26T04:01:13.904Z,21.75
2022-08-26T04:05:27.497Z,21.72
2022-08-26T04:12:47.766Z,21.72
2022-08-26T04:16:02.434Z,21.76
2022-08-26T04:26:59.626Z,21.88
2022-08-26T04:30:13.963Z,21.95
2022-08-26T04:41:15.263Z,22.12
2022-08-26T04:44:06.940Z,22.05
2022-08-26T04:45:30.813Z,21.82
2022-08-26T04:48:46.117Z,22.23
2022-08-26T04:52:46.044Z,22.32
2022-08-26T05:03:07.538Z,22.61
2022-08-26T05:07:09.736Z,22.61
2022-08-26T05:17:46.894Z,23.10
2022-08-26T05:20:56.178Z,23.29
2022-08-26T05:28:07.652Z,23.48
2022-08-26T05:32:00.645Z,23.58
2022-08-26T05:35:13.674Z,24.65
2022-08-26T05:39:02.344Z,26.62
2022-08-26T06:49:58.796Z,30.13
2022-08-26T06:53:50.920Z,30.28
2022-08-26T07:00:48.842Z,30.76
2022-08-26T07:03:52.912Z,30.22
2022-08-26T07:06:56.411Z,29.88
2022-08-26T07:10:07.124Z,30.16
2022-08-26T07:13:11.198Z,30.42
2022-08-26T07:16:16.952Z,30.99
2022-08-26T07:19:29.939Z,30.71
2022-08-26T07:22:33.020Z,30.70
2022-08-26T07:25:43.515Z,30.44
2022-08-26T07:48:55.089Z,29.18
2022-08-26T07:52:04.759Z,29.09
2022-08-26T07:55:11.804Z,29.25
2022-08-26T08:02:39.886Z,29.11
2022-08-26T08:06:44.800Z,29.24
2022-08-26T08:17:02.326Z,29.10
2022-08-26T08:20:27.977Z,29.18
2022-08-26T08:23:35.385Z,29.46
2022-08-26T08:27:00.899Z,29.54
2022-08-26T08:30:10.001Z,29.67
2022-08-26T08:33:18.571Z,29.96
2022-08-26T08:40:45.743Z,30.00
2022-08-26T08:43:53.758Z,29.83
2022-08-26T08:50:47.336Z,29.93
2022-08-26T08:53:54.635Z,30.36
2022-08-26T08:57:11.629Z,30.34
2022-08-26T09:00:17.796Z,30.15
2022-08-26T09:04:01.142Z,30.84
2022-08-26T09:07:13.757Z,30.97
2022-08-26T09:10:36.151Z,30.66
2022-08-26T09:13:39.727Z,31.23
2022-08-26T09:17:06.485Z,31.12
2022-08-26T09:20:38.414Z,30.89
2022-08-26T09:23:49.469Z,31.90
2022-08-26T09:26:51.438Z,31.76
2022-08-26T09:30:01.297Z,31.92
2022-08-26T09:33:15.977Z,32.39
2022-08-26T09:36:41.418Z,32.71
2022-08-26T09:39:43.215Z,32.10
2022-08-26T09:46:55.846Z,32.04
2022-08-26T09:54:30.467Z,32.51
2022-08-26T09:58:08.711Z,32.52
2022-08-26T10:01:30.481Z,32.73
2022-08-26T10:08:47.696Z,33.09
2022-08-26T10:16:49.876Z,33.30
2022-08-26T10:20:26.569Z,32.66
2022-08-26T10:28:29.740Z,32.58
2022-08-26T10:36:34.074Z,33.33
2022-08-26T10:40:32.815Z,32.83
2022-08-26T10:48:43.266Z,33.46
2022-08-26T10:52:12.331Z,33.64
2022-08-26T10:59:57.263Z,33.44
2022-08-26T11:07:24.454Z,33.64
2022-08-26T11:11:01.851Z,33.07
2022-08-26T11:18:54.954Z,33.48
2022-08-26T11:56:35.875Z,33.13
2022-08-26T11:59:41.663Z,33.14
2022-08-26T12:03:18.389Z,33.33
2022-08-26T12:06:47.934Z,33.13
2022-08-26T12:09:57.164Z,33.12
2022-08-26T12:13:00.946Z,33.02
2022-08-26T12:16:06.322Z,32.95
2022-08-26T12:19:23.992Z,33.22
2022-08-26T12:22:29.765Z,33.34
2022-08-26T12:25:32.932Z,33.06
2022-08-26T12:28:44.452Z,32.86
2022-08-26T12:38:53.718Z,32.88
2022-08-26T12:42:55.748Z,32.82
2022-08-26T12:58:40.894Z,32.96
2022-08-26T13:02:14.568Z,32.20
2022-08-26T13:05:41.115Z,32.27
2022-08-26T13:21:37.730Z,32.51
2022-08-26T13:24:44.174Z,32.00
2022-08-26T13:27:46.218Z,32.79
2022-08-26T14:22:32.803Z,31.98
2022-08-26T14:34:06.038Z,32.69
2022-08-26T16:05:27.381Z,31.77
2022-08-26T16:08:36.528Z,31.47
2022-08-26T16:11:41.213Z,31.57
2022-08-26T16:15:05.117Z,31.69
2022-08-26T16:18:23.569Z,31.60
2022-08-26T16:41:57.475Z,30.99
2022-08-26T16:45:18.476Z,30.88
2022-08-26T17:38:46.392Z,29.40
2022-08-26T17:41:49.870Z,29.39
2022-08-26T17:44:51.368Z,29.17
2022-08-26T17:47:55.494Z,29.12
2022-08-26T17:51:18.733Z,28.93
2022-08-26T17:54:40.149Z,28.87
2022-08-26T17:57:42.306Z,28.82
2022-08-26T18:00:46.652Z,28.86
2022-08-26T18:04:08.520Z,28.80
2022-08-26T18:07:52.321Z,28.59
2022-08-26T18:11:33.918Z,28.78
2022-08-26T18:14:55.637Z,28.54
2022-08-26T18:17:58.439Z,28.58
2022-08-26T18:21:01.557Z,28.63
2022-08-26T18:24:04.220Z,28.63
2022-08-26T18:27:06.144Z,28.45
2022-08-26T18:30:29.233Z,28.39
2022-08-26T18:34:05.343Z,28.38
2022-08-26T19:01:03.915Z,27.84
2022-08-26T19:04:46.108Z,27.92
2022-08-26T19:08:27.753Z,27.85
2022-08-26T19:11:50.423Z,27.74
2022-08-26T19:15:12.812Z,27.65
2022-08-26T19:18:15.119Z,27.71
2022-08-26T19:21:16.618Z,27.72
2022-08-26T19:24:19.007Z,27.61
2022-08-26T19:27:20.464Z,27.51
2022-08-26T19:30:22.462Z,27.53
2022-08-26T19:33:25.271Z,27.43
2022-08-26T19:36:28.376Z,27.34
2022-08-26T19:39:30.123Z,27.40
2022-08-26T19:42:52.463Z,27.37
2022-08-26T19:46:18.283Z,27.33
2022-08-26T19:49:59.572Z,27.31
2022-08-26T19:53:03.448Z,27.17
2022-08-26T19:56:04.999Z,27.10
2022-08-26T19:59:06.443Z,27.16
2022-08-26T20:02:11.165Z,27.23
2022-08-26T20:05:14.494Z,27.18
2022-08-26T20:08:20.465Z,26.73
2022-08-26T20:11:24.515Z,27.04
2022-08-26T20:28:39.288Z,26.91
2022-08-26T20:32:00.986Z,26.82
2022-08-26T20:35:23.538Z,26.84
2022-08-26T20:38:44.956Z,26.76
2022-08-26T20:41:47.852Z,26.67
2022-08-26T20:44:54.262Z,26.60
2022-08-26T20:47:56.553Z,26.33
2022-08-26T20:54:37.810Z,26.09
2022-08-26T20:58:20.857Z,26.31
2022-08-26T21:01:44.893Z,26.30
2022-08-26T21:05:06.963Z,26.37
2022-08-26T21:08:09.306Z,26.32
2022-08-26T21:11:13.247Z,25.96
2022-08-26T21:14:16.835Z,25.98
2022-08-26T21:17:18.767Z,25.96
2022-08-26T21:20:20.368Z,25.77
2022-08-26T21:23:23.136Z,25.88
2022-08-26T21:26:29.791Z,26.05
2022-08-26T21:29:32.323Z,26.14
2022-08-26T21:32:54.773Z,26.19
2022-08-26T21:36:36.164Z,26.26
2022-08-26T21:39:59.324Z,26.28
2022-08-26T21:43:25.939Z,26.34
2022-08-26T21:46:57.050Z,26.31
2022-08-26T21:50:18.535Z,26.14
2022-08-26T21:53:20.885Z,25.93
2022-08-26T21:56:24.474Z,25.82
2022-08-26T21:59:46.155Z,25.69
2022-08-26T22:02:47.583Z,25.59
2022-08-26T22:05:49.124Z,25.61
2022-08-26T22:09:31.206Z,25.36
2022-08-26T22:13:12.867Z,25.25
2022-08-26T22:16:37.954Z,25.13
2022-08-26T22:19:59.501Z,25.12
2022-08-26T22:23:22.236Z,25.00
2022-08-26T22:26:52.697Z,25.21
2022-08-26T22:30:15.117Z,25.21
2022-08-26T22:33:17.146Z,25.13
2022-08-26T22:36:23.134Z,25.07
2022-08-26T22:46:48.045Z,24.88
2022-08-26T22:50:10.145Z,24.88
2022-08-26T22:53:32.737Z,24.58
2022-08-26T22:56:57.603Z,24.47
2022-08-26T22:59:59.095Z,24.36
2022-08-26T23:03:01.994Z,24.22
2022-08-26T23:06:06.192Z,24.28
2022-08-26T23:09:08.247Z,24.13
2022-08-26T23:12:10.125Z,24.05
2022-08-26T23:15:12.191Z,24.01
2022-08-26T23:30:43.555Z,23.78
2022-08-26T23:33:45.030Z,23.84
2022-08-26T23:36:46.995Z,23.73
2022-08-26T23:44:45.655Z,23.45
2022-08-26T23:47:47.961Z,23.42
2022-08-26T23:50:49.682Z,23.77
2022-08-26T23:53:51.337Z,23.53
